Terminal Aerodrome Forecast
Issued by NWS Paducah, KY

Home | Current Version | Previous Version | Text Only | Print | Product List | Glossary On
Versions: 1 2 3 4 5 6 7 8 9 10 11 12 13 14 15 16 17 18 19 20
000
FTUS43 KPAH 262011 AAA
TAFEVV
TAF AMD
KEVV 262011Z 2620/2718 VRB03KT P6SM VCTS SCT030CB
      TEMPO 2620/2623 BKN035CB
     FM262300 VRB02KT P6SM BKN250
     FM270900 00000KT 2SM BR BKN012
     FM271400 25003KT 6SM HZ BKN030=

USA.gov is the U.S. government's official web portal to all federal, state and local government web resources and services.